createdAt,value
2022-09-11T00:00:23.543Z,0
2022-09-11T00:01:23.518Z,0
2022-09-11T00:02:23.839Z,0
2022-09-11T00:03:23.671Z,0
2022-09-11T00:04:23.577Z,0
2022-09-11T00:05:26.437Z,0
2022-09-11T00:06:38.546Z,0
2022-09-11T00:07:23.517Z,0
2022-09-11T00:08:23.606Z,0
2022-09-11T00:09:23.530Z,0
2022-09-11T00:10:26.306Z,0
2022-09-11T00:11:23.527Z,0
2022-09-11T00:12:23.520Z,0
2022-09-11T00:13:23.833Z,0
2022-09-11T00:14:23.568Z,0
2022-09-11T00:15:23.547Z,0
2022-09-11T00:16:27.079Z,0
2022-09-11T00:17:23.519Z,0
2022-09-11T00:18:23.529Z,0
2022-09-11T00:19:23.693Z,0
2022-09-11T00:20:23.534Z,0
2022-09-11T00:21:26.559Z,0
2022-09-11T00:22:23.532Z,0
2022-09-11T00:23:23.579Z,0
2022-09-11T00:24:23.617Z,0
2022-09-11T00:25:23.540Z,0
2022-09-11T00:26:23.541Z,0
2022-09-11T00:27:26.373Z,0
2022-09-11T00:28:23.563Z,0
2022-09-11T00:29:23.610Z,0
2022-09-11T00:30:25.529Z,0
2022-09-11T00:31:23.897Z,0
2022-09-11T00:32:26.749Z,0
2022-09-11T00:33:23.576Z,0
2022-09-11T00:34:23.569Z,0
2022-09-11T00:35:23.576Z,0
2022-09-11T00:36:23.575Z,0
2022-09-11T00:37:23.554Z,0
2022-09-11T00:38:29.415Z,0
2022-09-11T00:39:23.607Z,0
2022-09-11T00:40:23.633Z,0
2022-09-11T00:41:23.573Z,0
2022-09-11T00:42:23.569Z,0
2022-09-11T00:43:26.605Z,0
2022-09-11T00:44:23.600Z,0
2022-09-11T00:45:23.577Z,0
2022-09-11T00:46:23.601Z,0
2022-09-11T00:47:23.597Z,0
2022-09-11T00:48:23.672Z,0
2022-09-11T00:49:26.359Z,0
2022-09-11T00:50:26.210Z,0
2022-09-11T00:51:23.587Z,0
2022-09-11T00:52:23.594Z,0
2022-09-11T00:53:23.614Z,0
2022-09-11T00:54:26.687Z,0
2022-09-11T00:55:23.621Z,0
2022-09-11T00:56:23.664Z,0
2022-09-11T00:57:23.605Z,0
2022-09-11T00:58:23.621Z,0
2022-09-11T00:59:23.630Z,0
2022-09-11T01:00:26.429Z,0
2022-09-11T01:01:23.818Z,0
2022-09-11T01:02:28.988Z,0
2022-09-11T01:03:23.648Z,0
2022-09-11T01:04:23.663Z,0
2022-09-11T01:05:26.369Z,0
2022-09-11T01:06:23.626Z,0
2022-09-11T01:07:23.617Z,0
2022-09-11T01:08:23.620Z,0
2022-09-11T01:09:23.653Z,0
2022-09-11T01:10:23.661Z,0
2022-09-11T01:11:23.626Z,0
2022-09-11T01:12:23.688Z,0
2022-09-11T01:13:23.618Z,0
2022-09-11T01:14:23.638Z,0
2022-09-11T01:15:23.687Z,0
2022-09-11T01:16:27.049Z,0
2022-09-11T01:17:23.637Z,0
2022-09-11T01:18:23.708Z,0
2022-09-11T01:19:23.682Z,0
2022-09-11T01:20:23.668Z,0
2022-09-11T01:21:23.651Z,0
2022-09-11T01:22:23.644Z,0
2022-09-11T01:23:23.545Z,0
2022-09-11T01:24:23.672Z,0
2022-09-11T01:25:23.648Z,0
2022-09-11T01:26:23.915Z,0
2022-09-11T01:27:23.663Z,0
2022-09-11T01:28:23.704Z,0
2022-09-11T01:29:23.675Z,0
2022-09-11T01:30:23.687Z,0
2022-09-11T01:31:23.908Z,0
2022-09-11T01:32:26.500Z,0
2022-09-11T01:33:23.681Z,0
2022-09-11T01:34:23.698Z,0
2022-09-11T01:35:23.703Z,0
2022-09-11T01:36:23.686Z,0
2022-09-11T01:37:23.665Z,0
2022-09-11T01:38:23.659Z,0
2022-09-11T01:39:23.700Z,0
2022-09-11T01:40:23.818Z,0
2022-09-11T01:41:23.670Z,0
2022-09-11T01:42:23.674Z,0
2022-09-11T01:43:26.542Z,0
2022-09-11T01:44:23.725Z,0
2022-09-11T01:45:23.876Z,0
2022-09-11T01:46:23.691Z,0
2022-09-11T01:47:23.697Z,0
2022-09-11T01:48:26.828Z,0
2022-09-11T01:49:23.795Z,0
2022-09-11T01:50:23.725Z,0
2022-09-11T01:51:23.592Z,0
2022-09-11T01:52:23.714Z,0
2022-09-11T01:53:23.703Z,0
2022-09-11T01:54:26.512Z,0
2022-09-11T01:55:23.763Z,0
2022-09-11T01:56:23.697Z,0
2022-09-11T01:57:23.698Z,0
2022-09-11T01:58:23.697Z,0
2022-09-11T01:59:26.925Z,0
2022-09-11T02:00:23.732Z,0
2022-09-11T02:01:23.717Z,0
2022-09-11T02:02:24.011Z,0
2022-09-11T02:03:23.717Z,0
2022-09-11T02:04:24.261Z,0
2022-09-11T02:05:23.716Z,0
2022-09-11T02:06:23.780Z,0
2022-09-11T02:07:23.766Z,0
2022-09-11T02:08:23.814Z,0
2022-09-11T02:09:23.754Z,0
2022-09-11T02:10:26.505Z,0
2022-09-11T02:11:23.730Z,0
2022-09-11T02:12:23.741Z,0
2022-09-11T02:13:27.884Z,0
2022-09-11T02:14:26.497Z,0
2022-09-11T02:15:26.822Z,0
2022-09-11T02:16:24.086Z,0
2022-09-11T02:17:23.761Z,0
2022-09-11T02:18:23.761Z,0
2022-09-11T02:19:23.767Z,0
2022-09-11T02:20:23.751Z,0
2022-09-11T02:21:27.091Z,0
2022-09-11T02:22:23.763Z,0
2022-09-11T02:23:23.799Z,0
2022-09-11T02:24:23.813Z,0
2022-09-11T02:25:23.766Z,0
2022-09-11T02:26:26.505Z,0
2022-09-11T02:27:23.762Z,0
2022-09-11T02:28:23.744Z,0
2022-09-11T02:29:23.783Z,0
2022-09-11T02:30:23.787Z,0
2022-09-11T02:31:24.047Z,0
2022-09-11T02:32:27.956Z,0
2022-09-11T02:33:23.766Z,0
2022-09-11T02:34:23.861Z,0
2022-09-11T02:35:23.777Z,0
2022-09-11T02:36:23.772Z,0
2022-09-11T02:37:26.945Z,0
2022-09-11T02:38:23.787Z,0
2022-09-11T02:39:23.827Z,0
2022-09-11T02:40:24.032Z,0
2022-09-11T02:41:23.783Z,0
2022-09-11T02:42:23.812Z,0
2022-09-11T02:43:29.610Z,0
2022-09-11T02:44:23.808Z,0
2022-09-11T02:45:24.048Z,0
2022-09-11T02:46:23.836Z,0
2022-09-11T02:47:23.932Z,0
2022-09-11T02:48:26.667Z,0
2022-09-11T02:49:23.814Z,0
2022-09-11T02:50:23.798Z,0
2022-09-11T02:51:23.798Z,0
2022-09-11T02:52:23.794Z,0
2022-09-11T02:53:23.837Z,0
2022-09-11T02:54:26.592Z,0
2022-09-11T02:55:23.908Z,0
2022-09-11T02:56:23.838Z,0
2022-09-11T02:57:23.850Z,0
2022-09-11T02:58:23.822Z,0
2022-09-11T02:59:25.032Z,0
2022-09-11T03:00:23.812Z,0
2022-09-11T03:01:24.040Z,0
2022-09-11T03:02:24.144Z,0
2022-09-11T03:03:23.878Z,0
2022-09-11T03:04:23.863Z,0
2022-09-11T03:05:26.902Z,0
2022-09-11T03:06:23.831Z,0
2022-09-11T03:07:23.827Z,0
2022-09-11T03:08:23.825Z,0
2022-09-11T03:09:23.864Z,0
2022-09-11T03:10:26.924Z,0
2022-09-11T03:11:23.832Z,0
2022-09-11T03:12:23.858Z,0
2022-09-11T03:13:23.866Z,0
2022-09-11T03:14:23.857Z,0
2022-09-11T03:15:23.965Z,0
2022-09-11T03:16:26.910Z,0
2022-09-11T03:17:23.845Z,0
2022-09-11T03:18:23.864Z,0
2022-09-11T03:19:23.897Z,0
2022-09-11T03:20:23.854Z,0
2022-09-11T03:21:27.031Z,0
2022-09-11T03:22:23.852Z,0
2022-09-11T03:23:23.847Z,0
2022-09-11T03:24:23.874Z,0
2022-09-11T03:25:23.899Z,0
2022-09-11T03:26:23.893Z,0
2022-09-11T03:27:26.642Z,0
2022-09-11T03:28:23.894Z,0
2022-09-11T03:29:23.877Z,0
2022-09-11T03:30:23.864Z,0
2022-09-11T03:31:25.297Z,0
2022-09-11T03:32:27.018Z,0
2022-09-11T03:33:23.865Z,0
2022-09-11T03:34:23.891Z,0
2022-09-11T03:35:23.939Z,0
2022-09-11T03:36:23.882Z,0
2022-09-11T03:37:23.977Z,0
2022-09-11T03:38:23.934Z,0
2022-09-11T03:39:23.893Z,0
2022-09-11T03:40:23.970Z,0
2022-09-11T03:41:23.905Z,0
2022-09-11T03:42:23.915Z,0
2022-09-11T03:43:26.660Z,0
2022-09-11T03:44:23.982Z,0
2022-09-11T03:45:24.088Z,0
2022-09-11T03:46:23.892Z,0
2022-09-11T03:47:23.896Z,0
2022-09-11T03:48:23.976Z,0
2022-09-11T03:49:23.924Z,0
2022-09-11T03:50:23.950Z,0
2022-09-11T03:51:23.982Z,0
2022-09-11T03:52:23.911Z,0
2022-09-11T03:53:23.913Z,0
2022-09-11T03:54:23.928Z,0
2022-09-11T03:55:23.945Z,0
2022-09-11T03:56:23.919Z,0
2022-09-11T03:57:23.938Z,0
2022-09-11T03:58:23.960Z,0
2022-09-11T03:59:26.693Z,0
2022-09-11T04:00:23.950Z,0
2022-09-11T04:01:24.387Z,0
2022-09-11T04:02:24.115Z,0
2022-09-11T04:03:23.944Z,0
2022-09-11T04:04:23.980Z,0
2022-09-11T04:05:24.006Z,0
2022-09-11T04:06:23.928Z,0
2022-09-11T04:07:24.027Z,0
2022-09-11T04:08:23.950Z,0
2022-09-11T04:09:23.960Z,0
2022-09-11T04:10:26.707Z,0
2022-09-11T04:11:23.946Z,0
2022-09-11T04:12:23.963Z,0
2022-09-11T04:13:23.981Z,0
2022-09-11T04:14:23.994Z,0
2022-09-11T04:15:26.774Z,0
2022-09-11T04:16:24.522Z,0
2022-09-11T04:17:23.951Z,0
2022-09-11T04:18:23.951Z,0
2022-09-11T04:19:24.006Z,0
2022-09-11T04:20:23.970Z,0
2022-09-11T04:21:27.228Z,0
2022-09-11T04:22:23.994Z,0
2022-09-11T04:23:24.021Z,0
2022-09-11T04:24:23.979Z,0
2022-09-11T04:25:23.969Z,0
2022-09-11T04:26:27.164Z,0
2022-09-11T04:27:23.967Z,0
2022-09-11T04:28:23.970Z,0
2022-09-11T04:29:24.057Z,0
2022-09-11T04:30:23.838Z,0
2022-09-11T04:31:27.284Z,0
2022-09-11T04:32:26.967Z,0
2022-09-11T04:33:23.982Z,0
2022-09-11T04:34:23.997Z,0
2022-09-11T04:35:23.986Z,0
2022-09-11T04:36:23.988Z,0
2022-09-11T04:37:27.047Z,0
2022-09-11T04:38:23.996Z,0
2022-09-11T04:39:27.428Z,0
2022-09-11T04:40:23.851Z,0
2022-09-11T04:41:24.001Z,0
2022-09-11T04:42:27.300Z,0
2022-09-11T04:43:24.017Z,0
2022-09-11T04:44:24.051Z,0
2022-09-11T04:45:24.153Z,0
2022-09-11T04:46:24.048Z,0
2022-09-11T04:47:24.043Z,0
2022-09-11T04:48:26.831Z,0
2022-09-11T04:49:24.031Z,0
2022-09-11T04:50:24.013Z,0
2022-09-11T04:51:24.026Z,0
2022-09-11T04:52:24.029Z,0
2022-09-11T04:53:27.088Z,0
2022-09-11T04:54:24.026Z,0
2022-09-11T04:55:24.138Z,0
2022-09-11T04:56:24.021Z,0
2022-09-11T04:57:24.022Z,0
2022-09-11T04:58:24.043Z,0
2022-09-11T04:59:27.704Z,0
2022-09-11T05:00:24.038Z,0
2022-09-11T05:01:24.348Z,0
2022-09-11T05:02:24.611Z,0
2022-09-11T05:03:24.037Z,0
2022-09-11T05:04:32.758Z,0
2022-09-11T05:05:24.028Z,0
2022-09-11T05:06:24.041Z,0
2022-09-11T05:07:24.038Z,0
2022-09-11T05:08:24.029Z,0
2022-09-11T05:09:24.095Z,0
2022-09-11T05:10:26.921Z,0
2022-09-11T05:11:24.085Z,0
2022-09-11T05:12:24.046Z,0
2022-09-11T05:13:24.046Z,0
2022-09-11T05:14:24.056Z,0
2022-09-11T05:15:26.804Z,0
2022-09-11T05:16:24.398Z,0
2022-09-11T05:17:23.979Z,0
2022-09-11T05:18:24.092Z,0
2022-09-11T05:19:24.092Z,0
2022-09-11T05:20:24.068Z,0
2022-09-11T05:21:26.875Z,0
2022-09-11T05:22:24.077Z,0
2022-09-11T05:23:24.053Z,0
2022-09-11T05:24:24.108Z,0
2022-09-11T05:25:24.067Z,0
2022-09-11T05:26:27.205Z,0
2022-09-11T05:27:24.067Z,0
2022-09-11T05:28:24.056Z,0
2022-09-11T05:29:24.088Z,0
2022-09-11T05:30:24.067Z,0
2022-09-11T05:31:24.369Z,0
2022-09-11T05:32:26.916Z,0
2022-09-11T05:33:24.078Z,0
2022-09-11T05:34:24.147Z,0
2022-09-11T05:35:24.111Z,0
2022-09-11T05:36:24.076Z,0
2022-09-11T05:37:27.147Z,0
2022-09-11T05:38:24.102Z,0
2022-09-11T05:39:24.098Z,0
2022-09-11T05:40:24.227Z,0
2022-09-11T05:41:24.088Z,0
2022-09-11T05:42:24.233Z,0
2022-09-11T05:43:26.856Z,0
2022-09-11T05:44:24.111Z,0
2022-09-11T05:45:24.094Z,5
2022-09-11T05:46:24.119Z,5
2022-09-11T05:47:24.103Z,5
2022-09-11T05:48:27.085Z,5
2022-09-11T05:49:24.107Z,5
2022-09-11T05:50:24.130Z,5
2022-09-11T05:51:24.313Z,5
2022-09-11T05:52:24.111Z,5
2022-09-11T05:53:24.107Z,5
2022-09-11T05:54:27.177Z,5
2022-09-11T05:55:24.112Z,5
2022-09-11T05:56:24.121Z,5
2022-09-11T05:57:24.146Z,5
2022-09-11T05:58:24.183Z,5
2022-09-11T05:59:27.017Z,5
2022-09-11T06:00:24.127Z,5
2022-09-11T06:01:24.692Z,5
2022-09-11T06:02:24.364Z,5
2022-09-11T06:03:24.689Z,5
2022-09-11T06:04:24.203Z,5
2022-09-11T06:05:24.153Z,5
2022-09-11T06:06:24.154Z,5
2022-09-11T06:07:24.225Z,5
2022-09-11T06:08:24.129Z,5
2022-09-11T06:09:24.149Z,5
2022-09-11T06:10:27.155Z,5
2022-09-11T06:11:24.129Z,5
2022-09-11T06:12:24.135Z,5
2022-09-11T06:13:24.134Z,5
2022-09-11T06:14:24.202Z,5
2022-09-11T06:15:53.761Z,5
2022-09-11T06:16:27.868Z,5
2022-09-11T06:17:24.241Z,5
2022-09-11T06:18:24.138Z,5
2022-09-11T06:19:24.157Z,5
2022-09-11T06:20:24.175Z,5
2022-09-11T06:21:24.150Z,5
2022-09-11T06:22:24.198Z,5
2022-09-11T06:23:24.186Z,5
2022-09-11T06:24:24.209Z,5
2022-09-11T06:25:24.165Z,5
2022-09-11T06:26:27.335Z,5
2022-09-11T06:27:24.186Z,5
2022-09-11T06:28:24.162Z,5
2022-09-11T06:29:24.196Z,5
2022-09-11T06:30:24.343Z,5
2022-09-11T06:31:24.170Z,5
2022-09-11T06:32:24.164Z,5
2022-09-11T06:33:24.206Z,5
2022-09-11T06:34:24.191Z,5
2022-09-11T06:35:24.162Z,5
2022-09-11T06:36:24.214Z,10
2022-09-11T06:37:27.298Z,10
2022-09-11T06:38:24.206Z,10
2022-09-11T06:39:24.239Z,10
2022-09-11T06:40:24.252Z,10
2022-09-11T06:41:24.216Z,10
2022-09-11T06:42:27.096Z,10
2022-09-11T06:43:24.190Z,10
2022-09-11T06:44:24.207Z,10
2022-09-11T06:45:24.198Z,10
2022-09-11T06:46:24.241Z,10
2022-09-11T06:47:24.236Z,10
2022-09-11T06:48:26.968Z,10
2022-09-11T06:49:24.229Z,10
2022-09-11T06:50:27.057Z,10
2022-09-11T06:51:24.208Z,10
2022-09-11T06:52:24.238Z,10
2022-09-11T06:53:27.533Z,5
2022-09-11T06:54:27.101Z,5
2022-09-11T06:55:24.225Z,5
2022-09-11T06:56:24.212Z,5
2022-09-11T06:57:24.222Z,5
2022-09-11T06:58:27.248Z,5
2022-09-11T06:59:26.979Z,5
2022-09-11T07:00:24.274Z,5
2022-09-11T07:01:25.041Z,5
2022-09-11T07:02:24.598Z,5
2022-09-11T07:03:24.225Z,5
2022-09-11T07:04:27.289Z,5
2022-09-11T07:05:24.257Z,5
2022-09-11T07:06:24.242Z,5
2022-09-11T07:07:24.242Z,5
2022-09-11T07:08:29.680Z,5
2022-09-11T07:09:27.033Z,5
2022-09-11T07:10:24.318Z,5
2022-09-11T07:11:24.279Z,5
2022-09-11T07:12:24.265Z,5
2022-09-11T07:13:24.239Z,5
2022-09-11T07:14:24.250Z,5
2022-09-11T07:15:27.079Z,5
2022-09-11T07:16:24.613Z,5
2022-09-11T07:17:24.285Z,5
2022-09-11T07:18:24.310Z,10
2022-09-11T07:19:24.271Z,10
2022-09-11T07:20:25.578Z,10
2022-09-11T07:21:24.260Z,10
2022-09-11T07:22:24.263Z,10
2022-09-11T07:23:24.440Z,10
2022-09-11T07:24:24.288Z,10
2022-09-11T07:25:24.363Z,10
2022-09-11T07:26:27.133Z,15
2022-09-11T07:27:24.288Z,15
2022-09-11T07:28:25.293Z,15
2022-09-11T07:29:24.262Z,15
2022-09-11T07:30:24.418Z,15
2022-09-11T07:31:29.951Z,15
2022-09-11T07:32:24.107Z,15
2022-09-11T07:33:24.276Z,15
2022-09-11T07:34:24.317Z,15
2022-09-11T07:35:24.300Z,15
2022-09-11T07:36:24.323Z,20
2022-09-11T07:37:27.572Z,20
2022-09-11T07:38:24.281Z,20
2022-09-11T07:39:24.287Z,20
2022-09-11T07:40:24.637Z,20
2022-09-11T07:41:24.341Z,20
2022-09-11T07:42:27.190Z,20
2022-09-11T07:43:24.292Z,15
2022-09-11T07:44:24.292Z,15
2022-09-11T07:45:29.280Z,15
2022-09-11T07:46:24.310Z,15
2022-09-11T07:47:24.297Z,15
2022-09-11T07:48:27.057Z,15
2022-09-11T07:49:24.308Z,15
2022-09-11T07:50:24.429Z,15
2022-09-11T07:51:24.712Z,15
2022-09-11T07:52:26.094Z,15
2022-09-11T07:53:27.087Z,15
2022-09-11T07:54:24.308Z,15
2022-09-11T07:55:24.331Z,15
2022-09-11T07:56:24.333Z,10
2022-09-11T07:57:24.416Z,10
2022-09-11T07:58:24.364Z,10
2022-09-11T07:59:27.130Z,10
2022-09-11T08:00:24.361Z,10
2022-09-11T08:01:24.662Z,10
2022-09-11T08:02:24.605Z,15
2022-09-11T08:03:24.332Z,15
2022-09-11T08:04:30.181Z,15
2022-09-11T08:05:24.366Z,15
2022-09-11T08:06:29.514Z,15
2022-09-11T08:07:24.402Z,20
2022-09-11T08:08:24.446Z,20
2022-09-11T08:09:24.761Z,20
2022-09-11T08:10:39.823Z,20
2022-09-11T08:11:24.345Z,20
2022-09-11T08:12:24.368Z,20
2022-09-11T08:13:24.390Z,20
2022-09-11T08:14:24.396Z,20
2022-09-11T08:15:27.428Z,20
2022-09-11T08:16:24.783Z,20
2022-09-11T08:17:24.364Z,20
2022-09-11T08:18:24.365Z,20
2022-09-11T08:19:24.351Z,20
2022-09-11T08:20:24.415Z,20
2022-09-11T08:21:27.154Z,25
2022-09-11T08:22:24.404Z,25
2022-09-11T08:23:24.361Z,25
2022-09-11T08:24:24.401Z,20
2022-09-11T08:25:24.366Z,20
2022-09-11T08:26:27.179Z,20
2022-09-11T08:27:24.206Z,20
2022-09-11T08:28:24.397Z,20
2022-09-11T08:29:24.392Z,25
2022-09-11T08:30:24.473Z,20
2022-09-11T08:31:24.914Z,20
2022-09-11T08:32:24.370Z,20
2022-09-11T08:33:24.374Z,15
2022-09-11T08:34:24.393Z,15
2022-09-11T08:35:24.373Z,15
2022-09-11T08:36:24.400Z,15
2022-09-11T08:37:27.453Z,15
2022-09-11T08:38:24.381Z,20
2022-09-11T08:39:24.390Z,20
2022-09-11T08:40:24.556Z,20
2022-09-11T08:41:24.410Z,20
2022-09-11T08:42:24.392Z,20
2022-09-11T08:43:24.396Z,20
2022-09-11T08:44:24.420Z,20
2022-09-11T08:45:24.425Z,20
2022-09-11T08:46:24.450Z,20
2022-09-11T08:47:24.418Z,25
2022-09-11T08:48:24.401Z,25
2022-09-11T08:49:24.411Z,25
2022-09-11T08:50:24.448Z,30
2022-09-11T08:51:24.422Z,30
2022-09-11T08:52:24.415Z,30
2022-09-11T08:53:27.529Z,30
2022-09-11T08:54:24.416Z,30
2022-09-11T08:55:24.271Z,30
2022-09-11T08:56:24.462Z,30
2022-09-11T08:57:24.437Z,30
2022-09-11T08:58:24.434Z,30
2022-09-11T08:59:24.423Z,25
2022-09-11T09:00:24.327Z,25
2022-09-11T09:01:28.790Z,25
2022-09-11T09:02:24.687Z,25
2022-09-11T09:03:24.429Z,25
2022-09-11T09:04:27.530Z,20
2022-09-11T09:05:24.450Z,20
2022-09-11T09:06:24.460Z,25
2022-09-11T09:07:24.435Z,30
2022-09-11T09:08:24.446Z,30
2022-09-11T09:09:29.775Z,30
2022-09-11T09:10:24.504Z,30
2022-09-11T09:11:24.460Z,30
2022-09-11T09:12:24.451Z,30
2022-09-11T09:13:24.437Z,35
2022-09-11T09:14:24.448Z,35
2022-09-11T09:15:29.534Z,35
2022-09-11T09:16:25.238Z,35
2022-09-11T09:17:24.485Z,35
2022-09-11T09:18:24.656Z,25
2022-09-11T09:19:24.475Z,25
2022-09-11T09:20:27.647Z,25
2022-09-11T09:21:24.495Z,30
2022-09-11T09:22:24.307Z,35
2022-09-11T09:23:24.477Z,25
2022-09-11T09:24:24.461Z,25
2022-09-11T09:25:24.522Z,25
2022-09-11T09:26:27.355Z,25
2022-09-11T09:27:24.468Z,20
2022-09-11T09:28:24.671Z,20
2022-09-11T09:29:24.479Z,20
2022-09-11T09:30:24.594Z,25
2022-09-11T09:31:28.069Z,25
2022-09-11T09:32:24.484Z,30
2022-09-11T09:33:24.509Z,30
2022-09-11T09:34:24.508Z,25
2022-09-11T09:35:24.510Z,30
2022-09-11T09:36:25.595Z,30
2022-09-11T09:37:24.515Z,30
2022-09-11T09:38:33.202Z,35
2022-09-11T09:39:24.511Z,40
2022-09-11T09:40:24.812Z,40
2022-09-11T09:41:24.631Z,35
2022-09-11T09:42:27.336Z,25
2022-09-11T09:43:24.496Z,25
2022-09-11T09:44:28.549Z,25
2022-09-11T09:45:24.516Z,30
2022-09-11T09:46:24.755Z,30
2022-09-11T09:47:27.667Z,40
2022-09-11T09:48:24.502Z,45
2022-09-11T09:49:24.541Z,45
2022-09-11T09:50:24.542Z,25
2022-09-11T09:51:24.532Z,25
2022-09-11T09:52:24.542Z,25
2022-09-11T09:53:27.315Z,25
2022-09-11T09:54:24.534Z,25
2022-09-11T09:55:24.525Z,20
2022-09-11T09:56:24.561Z,20
2022-09-11T09:57:24.580Z,15
2022-09-11T09:58:27.310Z,20
2022-09-11T09:59:24.534Z,20
2022-09-11T10:00:24.546Z,20
2022-09-11T10:01:27.361Z,20
2022-09-11T10:02:24.958Z,20
2022-09-11T10:03:24.572Z,30
2022-09-11T10:04:27.809Z,35
2022-09-11T10:05:24.572Z,45
2022-09-11T10:06:24.606Z,40
2022-09-11T10:07:24.562Z,40
2022-09-11T10:08:24.557Z,40
2022-09-11T10:09:27.329Z,75
2022-09-11T10:10:24.580Z,55
2022-09-11T10:11:24.578Z,60
2022-09-11T10:12:24.550Z,60
2022-09-11T10:13:28.979Z,50
2022-09-11T10:14:58.869Z,100
2022-09-11T10:15:27.438Z,75
2022-09-11T10:17:24.578Z,90
2022-09-11T10:18:24.588Z,80
2022-09-11T10:19:24.606Z,90
2022-09-11T10:20:27.831Z,75
2022-09-11T10:21:24.606Z,75
2022-09-11T10:22:24.613Z,65
2022-09-11T10:23:24.604Z,45
2022-09-11T10:24:24.596Z,40
2022-09-11T10:25:24.604Z,45
2022-09-11T10:26:27.683Z,65
2022-09-11T10:27:38.130Z,60
2022-09-11T10:28:24.589Z,60
2022-09-11T10:29:24.649Z,55
2022-09-11T10:30:24.732Z,65
2022-09-11T10:31:27.908Z,60
2022-09-11T10:32:24.599Z,50
2022-09-11T10:33:24.603Z,40
2022-09-11T10:34:24.674Z,40
2022-09-11T10:35:24.651Z,40
2022-09-11T10:36:24.666Z,40
2022-09-11T10:37:27.616Z,30
2022-09-11T10:38:24.669Z,30
2022-09-11T10:39:24.618Z,30
2022-09-11T10:40:24.883Z,35
2022-09-11T10:41:24.633Z,45
2022-09-11T10:42:27.633Z,40
2022-09-11T10:43:24.631Z,40
2022-09-11T10:44:24.616Z,35
2022-09-11T10:45:24.674Z,45
2022-09-11T10:46:24.632Z,45
2022-09-11T10:47:24.622Z,30
2022-09-11T10:48:27.654Z,30
2022-09-11T10:49:24.625Z,35
2022-09-11T10:50:24.614Z,40
2022-09-11T10:51:24.678Z,45
2022-09-11T10:52:24.690Z,45
2022-09-11T10:53:27.760Z,50
2022-09-11T10:54:24.674Z,60
2022-09-11T10:55:24.642Z,55
2022-09-11T10:56:24.656Z,90
2022-09-11T10:57:24.738Z,50
2022-09-11T10:58:24.636Z,95
2022-09-11T10:59:24.657Z,45
2022-09-11T11:00:24.726Z,45
2022-09-11T11:01:24.950Z,35
2022-09-11T11:02:25.194Z,30
2022-09-11T11:03:24.671Z,30
2022-09-11T11:04:27.702Z,40
2022-09-11T11:05:24.658Z,40
2022-09-11T11:06:24.696Z,45
2022-09-11T11:07:24.707Z,40
2022-09-11T11:08:24.690Z,40
2022-09-11T11:09:27.744Z,35
2022-09-11T11:10:24.696Z,35
2022-09-11T11:12:24.688Z,25
2022-09-11T11:13:24.680Z,20
2022-09-11T11:14:24.675Z,15
2022-09-11T11:15:31.298Z,15
2022-09-11T11:16:24.871Z,15
2022-09-11T11:17:24.731Z,10
2022-09-11T11:18:24.698Z,10
2022-09-11T11:19:24.697Z,10
2022-09-11T11:20:27.509Z,15
2022-09-11T11:21:24.544Z,15
2022-09-11T11:22:24.723Z,15
2022-09-11T11:23:25.787Z,20
2022-09-11T11:24:24.737Z,20
2022-09-11T11:25:24.691Z,25
2022-09-11T11:26:24.718Z,75
2022-09-11T11:27:24.728Z,45
2022-09-11T11:28:24.712Z,40
2022-09-11T11:29:24.717Z,30
2022-09-11T11:30:24.718Z,70
2022-09-11T11:31:28.044Z,75
2022-09-11T11:32:24.712Z,80
2022-09-11T11:33:24.752Z,85
2022-09-11T11:34:24.704Z,85
2022-09-11T11:35:24.545Z,70
2022-09-11T11:36:27.625Z,85
2022-09-11T11:37:24.723Z,50
2022-09-11T11:38:24.733Z,40
2022-09-11T11:39:24.581Z,40
2022-09-11T11:40:25.000Z,40
2022-09-11T11:41:24.771Z,35
2022-09-11T11:42:27.542Z,45
2022-09-11T11:43:24.741Z,45
2022-09-11T11:44:24.741Z,40
2022-09-11T11:45:25.762Z,35
2022-09-11T11:46:25.014Z,35
2022-09-11T11:47:27.822Z,45
2022-09-11T11:48:24.750Z,40
2022-09-11T11:49:24.795Z,60
2022-09-11T11:50:26.454Z,60
2022-09-11T11:51:24.752Z,50
2022-09-11T11:52:24.761Z,45
2022-09-11T11:53:27.785Z,40
2022-09-11T11:54:24.811Z,40
2022-09-11T11:55:24.819Z,40
2022-09-11T11:56:25.802Z,35
2022-09-11T11:57:24.759Z,35
2022-09-11T11:58:27.395Z,35
2022-09-11T11:59:24.753Z,35
2022-09-11T12:00:24.756Z,35
2022-09-11T12:01:24.755Z,30
2022-09-11T12:02:24.958Z,35
2022-09-11T12:03:27.962Z,35
2022-09-11T12:04:27.852Z,35
2022-09-11T12:05:24.794Z,35
2022-09-11T12:06:24.792Z,35
2022-09-11T12:07:24.801Z,35
2022-09-11T12:08:24.769Z,35
2022-09-11T12:09:30.347Z,35
2022-09-11T12:10:24.785Z,35
2022-09-11T12:11:24.811Z,35
2022-09-11T12:12:24.809Z,35
2022-09-11T12:13:24.789Z,35
2022-09-11T12:14:27.582Z,35
2022-09-11T12:15:24.783Z,35
2022-09-11T12:16:25.147Z,30
2022-09-11T12:17:24.796Z,30
2022-09-11T12:18:24.805Z,30
2022-09-11T12:19:24.798Z,30
2022-09-11T12:20:27.872Z,25
2022-09-11T12:21:24.834Z,25
2022-09-11T12:22:24.843Z,35
2022-09-11T12:23:24.813Z,30
2022-09-11T12:24:24.804Z,35
2022-09-11T12:25:27.947Z,65
2022-09-11T12:26:24.798Z,40
2022-09-11T12:27:24.864Z,70
2022-09-11T12:28:24.844Z,70
2022-09-11T12:29:24.670Z,60
2022-09-11T12:30:24.881Z,70
2022-09-11T12:31:28.230Z,55
2022-09-11T12:32:24.837Z,70
2022-09-11T12:33:24.829Z,70
2022-09-11T12:34:24.825Z,75
2022-09-11T12:35:24.828Z,70
2022-09-11T12:36:27.625Z,65
2022-09-11T12:37:24.866Z,75
2022-09-11T12:38:24.833Z,75
2022-09-11T12:39:24.831Z,75
2022-09-11T12:40:25.002Z,70
2022-09-11T12:41:24.842Z,70
2022-09-11T12:42:27.653Z,70
2022-09-11T12:43:24.842Z,75
2022-09-11T12:44:24.867Z,40
2022-09-11T12:45:24.855Z,45
2022-09-11T12:46:24.890Z,30
2022-09-11T12:47:28.736Z,25
2022-09-11T12:48:24.842Z,25
2022-09-11T12:49:31.948Z,25
2022-09-11T12:50:24.841Z,25
2022-09-11T12:51:24.844Z,25
2022-09-11T12:52:24.894Z,30
2022-09-11T12:53:27.973Z,40
2022-09-11T12:54:24.867Z,45
2022-09-11T12:55:24.873Z,45
2022-09-11T12:56:24.860Z,25
2022-09-11T12:57:24.876Z,25
2022-09-11T12:58:27.722Z,25
2022-09-11T12:59:24.878Z,25
2022-09-11T13:00:24.901Z,25
2022-09-11T13:01:25.294Z,25
2022-09-11T13:02:25.170Z,25
2022-09-11T13:03:24.873Z,25
2022-09-11T13:04:27.978Z,30
2022-09-11T13:05:24.897Z,30
2022-09-11T13:06:24.884Z,50
2022-09-11T13:07:24.902Z,25
2022-09-11T13:08:24.917Z,25
2022-09-11T13:09:28.015Z,25
2022-09-11T13:10:24.902Z,25
2022-09-11T13:11:24.885Z,25
2022-09-11T13:12:24.904Z,25
2022-09-11T13:13:24.891Z,20
2022-09-11T13:14:24.950Z,20
2022-09-11T13:15:27.646Z,20
2022-09-11T13:16:25.025Z,20
2022-09-11T13:17:24.915Z,20
2022-09-11T13:18:24.931Z,15
2022-09-11T13:19:24.902Z,15
2022-09-11T13:20:27.660Z,15
2022-09-11T13:21:30.328Z,15
2022-09-11T13:22:24.971Z,15
2022-09-11T13:23:24.920Z,15
2022-09-11T13:24:24.944Z,15
2022-09-11T13:25:25.172Z,20
2022-09-11T13:26:24.903Z,20
2022-09-11T13:27:24.948Z,20
2022-09-11T13:28:34.224Z,20
2022-09-11T13:29:24.957Z,35
2022-09-11T13:30:24.968Z,25
2022-09-11T13:31:28.419Z,20
2022-09-11T13:32:24.978Z,20
2022-09-11T13:33:24.945Z,20
2022-09-11T13:34:24.985Z,60
2022-09-11T13:35:25.334Z,30
2022-09-11T13:36:24.929Z,25
2022-09-11T13:37:25.337Z,20
2022-09-11T13:38:24.954Z,20
2022-09-11T13:39:24.988Z,20
2022-09-11T13:40:25.149Z,20
2022-09-11T13:41:24.963Z,20
2022-09-11T13:42:25.011Z,20
2022-09-11T13:43:24.967Z,20
2022-09-11T13:44:25.073Z,20
2022-09-11T13:45:25.085Z,20
2022-09-11T13:46:24.987Z,25
2022-09-11T13:47:27.776Z,30
2022-09-11T13:48:24.967Z,50
2022-09-11T13:49:25.002Z,55
2022-09-11T13:50:24.994Z,25
2022-09-11T13:51:25.042Z,20
2022-09-11T13:52:25.030Z,20
2022-09-11T13:53:24.991Z,20
2022-09-11T13:54:24.970Z,20
2022-09-11T13:55:24.989Z,20
2022-09-11T13:56:24.998Z,20
2022-09-11T13:57:25.030Z,15
2022-09-11T13:58:27.985Z,15
2022-09-11T13:59:25.041Z,15
2022-09-11T14:00:25.006Z,15
2022-09-11T14:01:25.269Z,15
2022-09-11T14:02:25.289Z,50
2022-09-11T14:03:28.080Z,50
2022-09-11T14:04:25.021Z,50
2022-09-11T14:05:25.047Z,50
2022-09-11T14:06:25.067Z,50
2022-09-11T14:07:25.048Z,50
2022-09-11T14:08:30.862Z,50
2022-09-11T14:09:28.106Z,45
2022-09-11T14:10:24.984Z,25
2022-09-11T14:11:24.839Z,50
2022-09-11T14:12:25.368Z,50
2022-09-11T14:13:25.033Z,50
2022-09-11T14:14:28.100Z,50
2022-09-11T14:15:25.021Z,50
2022-09-11T14:16:25.205Z,50
2022-09-11T14:17:25.039Z,50
2022-09-11T14:18:25.075Z,50
2022-09-11T14:19:25.048Z,50
2022-09-11T14:20:28.175Z,45
2022-09-11T14:21:25.068Z,45
2022-09-11T14:22:25.332Z,45
2022-09-11T14:23:25.108Z,45
2022-09-11T14:24:27.843Z,45
2022-09-11T14:25:27.908Z,45
2022-09-11T14:26:25.101Z,45
2022-09-11T14:27:24.977Z,45
2022-09-11T14:28:25.098Z,45
2022-09-11T14:29:25.212Z,45
2022-09-11T14:30:27.927Z,45
2022-09-11T14:31:28.448Z,45
2022-09-11T14:32:25.049Z,45